Time;durP1;ratioP1;P1;durP2;ratioP2;P2;SDS_P1;SDS_P2;PMS_P1;PMS_P2;Temp;Humidity;BMP_temperature;BMP_pressure;BME280_temperature;BME280_humidity;BME280_pressure;Samples;Min_cycle;Max_cycle;Signal;HPM_P1;HPM_P2
2023/12/21 00:02:13;;;;;;;15.73;3.87;;;;;;;2.51;96.85;98805.41;4240269;28;22791;-72
2023/12/21 00:04:39;;;;;;;16.10;3.20;;;;;;;2.49;97.27;98806.53;4236157;28;20299;-70
2023/12/21 00:07:06;;;;;;;17.30;3.47;;;;;;;2.51;97.23;98799.22;4246242;28;21449;-71
2023/12/21 00:09:33;;;;;;;12.53;3.80;;;;;;;2.51;96.71;98794.72;4240555;28;20257;-70
2023/12/21 00:12:00;;;;;;;11.27;3.33;;;;;;;2.52;96.41;98799.09;4239938;28;20234;-72
2023/12/21 00:14:30;;;;;;;10.93;3.23;;;;;;;2.51;96.70;98786.72;4227008;28;20285;-72
2023/12/21 00:16:57;;;;;;;14.10;3.83;;;;;;;2.55;96.46;98795.31;4240924;28;20227;-71
2023/12/21 00:19:24;;;;;;;13.67;3.73;;;;;;;2.56;96.34;98794.31;4238740;28;20246;-71
2023/12/21 00:21:51;;;;;;;12.73;3.33;;;;;;;2.53;96.76;98797.25;4237519;28;20243;-72
2023/12/21 00:24:17;;;;;;;8.93;2.97;;;;;;;2.56;96.82;98783.63;4237546;28;20230;-69
2023/12/21 00:26:44;;;;;;;11.83;3.47;;;;;;;2.50;96.88;98787.69;4232804;28;20300;-73
2023/12/21 00:29:10;;;;;;;14.80;4.43;;;;;;;2.52;97.13;98774.19;4236684;28;22913;-71
2023/12/21 00:31:37;;;;;;;13.33;3.70;;;;;;;2.43;97.70;98767.00;4241343;28;21507;-70
2023/12/21 00:34:03;;;;;;;14.30;3.90;;;;;;;2.37;97.45;98763.06;4238620;28;22443;-72
2023/12/21 00:36:30;;;;;;;15.30;3.93;;;;;;;2.39;97.45;98755.75;4231861;28;21253;-70
2023/12/21 00:38:57;;;;;;;13.30;3.20;;;;;;;2.47;97.22;98769.25;4226762;28;22199;-72
2023/12/21 00:41:24;;;;;;;13.23;3.67;;;;;;;2.45;97.42;98781.06;4227928;28;20762;-72
2023/12/21 00:43:51;;;;;;;15.20;4.10;;;;;;;2.41;97.81;98771.66;4232539;28;20243;-72
2023/12/21 00:46:17;;;;;;;12.87;4.50;;;;;;;2.44;98.11;98769.56;4234228;28;21613;-71
2023/12/21 00:48:44;;;;;;;13.63;4.10;;;;;;;2.41;98.75;98761.78;4235587;28;21220;-70
2023/12/21 00:51:11;;;;;;;12.73;4.00;;;;;;;2.31;98.83;98764.44;4235930;28;20692;-72
2023/12/21 00:53:37;;;;;;;17.10;4.43;;;;;;;2.29;99.15;98771.75;4236954;28;21678;-70
2023/12/21 00:56:04;;;;;;;15.80;4.50;;;;;;;2.24;99.37;98770.44;4232423;28;22898;-71
2023/12/21 00:58:30;;;;;;;14.63;3.90;;;;;;;2.21;99.64;98777.78;4238585;28;20239;-71
2023/12/21 01:00:57;;;;;;;12.50;4.20;;;;;;;2.21;99.63;98772.44;4219162;28;21257;-71
2023/12/21 01:03:24;;;;;;;13.63;4.17;;;;;;;2.21;100.00;98763.56;4236541;28;22056;-71
2023/12/21 01:05:51;;;;;;;10.53;4.43;;;;;;;2.25;100.00;98761.47;4221915;28;21549;-71
2023/12/21 01:08:18;;;;;;;16.77;4.70;;;;;;;2.28;100.00;98756.69;4239915;28;20306;-69
2023/12/21 01:10:45;;;;;;;18.63;5.30;;;;;;;2.41;99.64;98764.47;4239939;28;20509;-71
2023/12/21 01:13:11;;;;;;;20.47;3.97;;;;;;;2.36;99.49;98756.03;4231093;28;20239;-71
2023/12/21 01:15:38;;;;;;;17.70;4.83;;;;;;;2.36;99.45;98762.22;4233951;28;21321;-70
2023/12/21 01:18:05;;;;;;;16.60;4.80;;;;;;;2.38;99.38;98756.72;4236899;28;22983;-71
2023/12/21 01:20:32;;;;;;;10.80;3.40;;;;;;;2.39;99.40;98755.75;4237432;28;20326;-72
2023/12/21 01:22:59;;;;;;;16.63;4.30;;;;;;;2.34;99.63;98744.63;4235577;28;22827;-71
2023/12/21 01:25:25;;;;;;;14.33;4.60;;;;;;;2.34;99.56;98747.31;4235288;28;20239;-71
2023/12/21 01:27:52;;;;;;;19.53;4.37;;;;;;;2.35;99.21;98743.66;4245710;28;20976;-73
2023/12/21 01:30:21;;;;;;;17.90;4.00;;;;;;;2.35;99.20;98730.31;4223627;28;20399;-70
2023/12/21 01:32:47;;;;;;;21.03;4.10;;;;;;;2.40;99.35;98729.91;4209488;28;20237;-70
2023/12/21 01:35:14;;;;;;;12.07;4.20;;;;;;;2.41;98.75;98728.91;4237803;28;20378;-70
2023/12/21 01:37:40;;;;;;;17.93;5.37;;;;;;;2.47;98.84;98731.03;4250179;28;21600;-69
2023/12/21 01:40:07;;;;;;;18.40;4.23;;;;;;;2.42;99.33;98712.75;4230810;28;22487;-70
2023/12/21 01:42:34;;;;;;;16.77;4.70;;;;;;;2.45;99.46;98723.16;4234853;28;20305;-72
2023/12/21 01:45:01;;;;;;;16.50;4.37;;;;;;;2.41;99.81;98712.91;4242390;28;20606;-72
2023/12/21 01:47:28;;;;;;;18.97;4.17;;;;;;;2.46;99.45;98726.66;4240015;28;22311;-69
2023/12/21 01:49:55;;;;;;;16.70;4.50;;;;;;;2.45;99.78;98723.16;4243434;28;20235;-72
2023/12/21 01:52:22;;;;;;;21.10;4.77;;;;;;;2.42;100.00;98717.25;4228920;28;22010;-71
2023/12/21 01:54:49;;;;;;;12.13;4.17;;;;;;;2.42;100.00;98717.25;4239455;28;20607;-71
2023/12/21 01:57:16;;;;;;;15.90;4.73;;;;;;;2.44;100.00;98709.94;4235213;28;20240;-70
2023/12/21 01:59:43;;;;;;;15.87;5.17;;;;;;;2.46;100.00;98705.31;4225572;28;20246;-70
2023/12/21 02:02:10;;;;;;;18.40;4.93;;;;;;;2.49;100.00;98705.88;4241564;28;22876;-71
2023/12/21 02:04:36;;;;;;;18.67;4.13;;;;;;;2.57;100.00;98704.34;4244117;28;22958;-72
2023/12/21 02:07:03;;;;;;;13.47;4.03;;;;;;;2.69;99.75;98704.06;4238545;28;22198;-71
2023/12/21 02:09:30;;;;;;;13.53;4.50;;;;;;;2.59;99.52;98697.03;4240023;28;20226;-70
2023/12/21 02:11:57;;;;;;;17.83;4.70;;;;;;;2.68;99.46;98683.69;4257748;28;20380;-71
2023/12/21 02:14:23;;;;;;;16.33;4.27;;;;;;;2.85;97.75;98686.63;4236939;28;20339;-70
2023/12/21 02:16:59;;;;;;;12.50;4.33;;;;;;;2.92;97.02;98682.41;4221939;28;20230;-71
2023/12/21 02:19:26;;;;;;;21.10;4.57;;;;;;;2.84;96.89;98674.25;4229327;28;20227;-70
2023/12/21 02:21:56;;;;;;;13.73;3.97;;;;;;;2.92;96.41;98671.72;4237462;28;20244;-72
2023/12/21 02:24:28;;;;;;;15.43;4.27;;;;;;;2.91;96.34;98682.56;4232174;28;20236;-69
2023/12/21 02:26:54;;;;;;;15.50;3.80;;;;;;;3.01;95.69;98665.53;4230961;28;20229;-69
2023/12/21 02:29:21;;;;;;;16.57;4.00;;;;;;;3.04;96.08;98675.06;4233527;28;20230;-72
2023/12/21 02:31:48;;;;;;;17.97;4.30;;;;;;;2.97;95.72;98665.94;4240789;28;20230;-71
2023/12/21 02:34:14;;;;;;;16.30;4.27;;;;;;;3.05;95.30;98662.53;4236748;28;20233;-71
2023/12/21 02:36:41;;;;;;;17.43;3.90;;;;;;;2.85;96.70;98652.72;4224019;28;21093;-70
2023/12/21 02:39:07;;;;;;;16.23;4.27;;;;;;;2.73;97.46;98651.19;4234034;28;20288;-70
2023/12/21 02:41:34;;;;;;;12.40;4.13;;;;;;;2.78;97.80;98656.94;4245253;28;20238;-72
2023/12/21 02:44:01;;;;;;;17.30;4.47;;;;;;;2.79;97.65;98649.78;4233280;28;22929;-72
2023/12/21 02:46:27;;;;;;;13.90;4.83;;;;;;;2.84;97.16;98639.50;4219494;28;21160;-72
2023/12/21 02:48:55;;;;;;;13.90;4.87;;;;;;;3.01;96.25;98645.94;4226085;28;21113;-71
2023/12/21 02:51:21;;;;;;;19.00;4.80;;;;;;;3.07;96.01;98626.66;4236220;28;25296;-70
2023/12/21 02:53:48;;;;;;;12.43;4.17;;;;;;;3.06;95.47;98627.63;4226682;28;20492;-70
2023/12/21 02:56:14;;;;;;;19.30;4.37;;;;;;;3.02;95.94;98615.56;4236537;28;20721;-71
2023/12/21 02:58:41;;;;;;;12.97;3.90;;;;;;;2.96;95.96;98619.66;4236896;28;20236;-70
2023/12/21 03:01:08;;;;;;;15.07;4.47;;;;;;;3.11;94.98;98620.06;4237529;28;22848;-71
2023/12/21 03:03:34;;;;;;;10.73;3.90;;;;;;;2.99;95.69;98616.69;4230887;28;20231;-70
2023/12/21 03:06:01;;;;;;;13.93;3.93;;;;;;;3.10;95.09;98612.16;4239243;28;20231;-71
2023/12/21 03:08:28;;;;;;;12.50;4.47;;;;;;;3.15;95.03;98608.06;4234252;28;21493;-70
2023/12/21 03:10:55;;;;;;;17.80;3.80;;;;;;;3.09;95.01;98599.81;4224842;28;20567;-71
2023/12/21 03:13:21;;;;;;;13.53;4.10;;;;;;;3.19;94.66;98587.22;4241285;28;20514;-71
2023/12/21 03:15:49;;;;;;;20.00;4.10;;;;;;;3.29;93.74;98589.84;4249217;28;20231;-73
2023/12/21 03:18:16;;;;;;;11.70;3.90;;;;;;;3.23;93.90;98577.06;4235549;28;20230;-70
2023/12/21 03:20:43;;;;;;;12.70;3.37;;;;;;;3.17;93.91;98565.16;4233802;28;20243;-70
2023/12/21 03:23:09;;;;;;;11.07;3.17;;;;;;;3.31;93.30;98556.66;4239698;28;23524;-71
2023/12/21 03:25:36;;;;;;;13.23;3.20;;;;;;;3.27;93.36;98559.78;4240879;28;20657;-73
2023/12/21 03:28:05;;;;;;;15.57;4.40;;;;;;;3.38;92.96;98556.06;4229043;28;23985;-71
2023/12/21 03:30:32;;;;;;;15.73;3.70;;;;;;;3.38;92.75;98551.53;4224667;28;22927;-70
2023/12/21 03:32:59;;;;;;;14.37;3.70;;;;;;;3.36;92.89;98541.97;4240564;28;20238;-74
2023/12/21 03:35:25;;;;;;;10.83;3.33;;;;;;;3.37;93.00;98546.34;4221004;28;20369;-71
2023/12/21 03:37:52;;;;;;;7.50;2.70;;;;;;;3.43;92.51;98535.91;4241401;28;20239;-71
2023/12/21 03:40:18;;;;;;;14.73;2.90;;;;;;;3.36;92.50;98525.94;4239726;28;23371;-69
2023/12/21 03:42:49;;;;;;;8.77;2.80;;;;;;;3.45;92.34;98538.44;4240004;28;21115;-69
2023/12/21 03:45:16;;;;;;;9.47;3.00;;;;;;;3.47;92.29;98537.28;4247430;28;20265;-71
2023/12/21 03:47:42;;;;;;;16.03;2.83;;;;;;;3.47;92.35;98534.59;4234392;28;20239;-71
2023/12/21 03:50:09;;;;;;;12.57;3.00;;;;;;;3.53;92.04;98529.63;4239964;28;20231;-71
2023/12/21 03:52:36;;;;;;;10.00;3.20;;;;;;;3.52;91.82;98518.13;4233516;28;20231;-71
2023/12/21 03:55:04;;;;;;;12.97;3.53;;;;;;;3.51;92.05;98500.38;4236644;28;20377;-72
2023/12/21 03:57:30;;;;;;;12.17;3.60;;;;;;;3.43;92.72;98495.78;4243142;28;20246;-71
2023/12/21 03:59:57;;;;;;;10.83;3.57;;;;;;;3.37;93.25;98499.03;4237315;28;20242;-69
2023/12/21 04:02:24;;;;;;;16.97;3.93;;;;;;;3.36;93.33;98493.84;4239051;28;20345;-70
2023/12/21 04:04:51;;;;;;;12.50;3.03;;;;;;;3.36;93.69;98492.00;4233501;28;20239;-71
2023/12/21 04:07:17;;;;;;;10.17;3.33;;;;;;;3.33;93.98;98492.31;4239358;28;23165;-71
2023/12/21 04:09:44;;;;;;;11.00;3.30;;;;;;;3.32;93.79;98482.59;4231175;28;20232;-70
2023/12/21 04:12:11;;;;;;;16.43;3.80;;;;;;;3.27;94.38;98487.56;4246680;28;21783;-69
2023/12/21 04:14:37;;;;;;;16.00;3.70;;;;;;;3.39;93.93;98488.22;4225262;28;23302;-71
2023/12/21 04:17:04;;;;;;;14.50;3.70;;;;;;;3.31;94.42;98473.75;4240915;28;20301;-71
2023/12/21 04:19:30;;;;;;;11.00;3.70;;;;;;;3.34;94.45;98485.97;4248086;28;20250;-70
2023/12/21 04:21:57;;;;;;;10.57;3.47;;;;;;;3.33;94.92;98476.28;4239499;28;21615;-71
2023/12/21 04:24:24;;;;;;;12.40;4.10;;;;;;;3.44;94.60;98475.22;4234928;28;20231;-72
2023/12/21 04:26:51;;;;;;;9.97;3.93;;;;;;;3.32;95.06;98470.06;4237721;28;20301;-72
2023/12/21 04:29:17;;;;;;;11.33;3.70;;;;;;;3.39;95.05;98461.47;4241993;28;20299;-71
2023/12/21 04:31:44;;;;;;;10.83;3.20;;;;;;;3.38;94.84;98465.94;4238018;28;20231;-70
2023/12/21 04:34:11;;;;;;;11.77;3.73;;;;;;;3.31;95.20;98452.34;4231760;28;20235;-72
2023/12/21 04:36:38;;;;;;;14.30;3.77;;;;;;;3.31;95.14;98457.72;4245469;28;20573;-72
2023/12/21 04:39:04;;;;;;;8.07;4.30;;;;;;;3.29;95.24;98448.13;4244087;28;21629;-70
2023/12/21 04:41:31;;;;;;;6.77;3.37;;;;;;;3.32;95.02;98443.31;4232735;28;22959;-70
2023/12/21 04:43:57;;;;;;;10.07;3.80;;;;;;;3.32;95.54;98445.16;4238898;28;25283;-71
2023/12/21 04:46:24;;;;;;;10.10;3.57;;;;;;;3.34;95.66;98443.19;4235705;28;20226;-71
2023/12/21 04:48:51;;;;;;;9.53;3.70;;;;;;;3.24;95.61;98437.03;4242017;28;20235;-71
2023/12/21 04:51:17;;;;;;;13.47;3.73;;;;;;;3.30;95.78;98431.09;4236980;28;21753;-71
2023/12/21 04:53:44;;;;;;;11.93;3.80;;;;;;;3.33;96.00;98436.16;4235111;28;20327;-71
2023/12/21 04:56:11;;;;;;;9.33;3.67;;;;;;;3.30;95.58;98415.91;4239606;28;21534;-71
2023/12/21 04:58:38;;;;;;;12.13;3.70;;;;;;;3.33;96.03;98420.94;4239306;28;20273;-72
2023/12/21 05:01:05;;;;;;;12.73;3.33;;;;;;;3.27;95.93;98413.53;4239033;28;20504;-71
2023/12/21 05:03:32;;;;;;;10.07;2.90;;;;;;;3.18;96.74;98419.75;4256765;28;22202;-72
2023/12/21 05:05:59;;;;;;;10.63;3.60;;;;;;;3.30;96.63;98418.59;4237809;28;20626;-71
2023/12/21 05:08:26;;;;;;;12.07;3.90;;;;;;;3.19;96.75;98409.94;4243607;28;20239;-71
2023/12/21 05:10:52;;;;;;;8.43;3.87;;;;;;;3.22;96.64;98405.13;4241424;28;22293;-70
2023/12/21 05:13:20;;;;;;;11.07;3.50;;;;;;;3.25;96.79;98393.28;4231583;28;20230;-71
2023/12/21 05:15:46;;;;;;;9.10;3.53;;;;;;;3.27;96.80;98380.59;4242306;28;21245;-71
2023/12/21 05:18:13;;;;;;;9.37;3.03;;;;;;;3.25;96.46;98385.25;4235839;28;20436;-70
2023/12/21 05:20:40;;;;;;;8.67;3.80;;;;;;;3.15;96.84;98379.97;4231791;28;20953;-70
2023/12/21 05:23:06;;;;;;;9.80;3.40;;;;;;;3.15;97.75;98372.78;4237571;28;20287;-71
2023/12/21 05:25:33;;;;;;;8.50;3.53;;;;;;;3.24;97.45;98367.53;4239426;28;20381;-72
2023/12/21 05:27:59;;;;;;;8.57;3.40;;;;;;;3.20;98.14;98377.69;4235389;28;22118;-74
2023/12/21 05:30:26;;;;;;;9.63;3.63;;;;;;;3.16;98.59;98368.28;4230795;28;20357;-72
2023/12/21 05:32:53;;;;;;;10.40;3.83;;;;;;;3.12;98.97;98353.53;4235806;28;21296;-72
2023/12/21 05:35:20;;;;;;;8.13;4.13;;;;;;;3.16;99.36;98345.06;4240803;28;20347;-70
2023/12/21 05:37:47;;;;;;;9.60;3.80;;;;;;;3.07;100.00;98340.63;4235782;28;20228;-71
2023/12/21 05:40:15;;;;;;;8.67;3.53;;;;;;;2.99;100.00;98338.72;4241656;28;20235;-71
2023/12/21 05:42:41;;;;;;;9.87;3.83;;;;;;;3.08;100.00;98338.81;4233945;28;20301;-71
2023/12/21 05:45:08;;;;;;;8.53;4.07;;;;;;;3.04;100.00;98330.25;4241812;28;20289;-72
2023/12/21 05:47:35;;;;;;;11.20;3.40;;;;;;;3.00;100.00;98329.72;4239112;28;22087;-71
2023/12/21 05:50:02;;;;;;;6.17;3.53;;;;;;;2.99;100.00;98322.69;4241555;28;21144;-68
2023/12/21 05:52:29;;;;;;;13.17;3.70;;;;;;;2.95;100.00;98323.13;4234804;28;22559;-71
2023/12/21 05:54:56;;;;;;;9.67;4.60;;;;;;;2.94;100.00;98322.28;4218431;28;20694;-69
2023/12/21 05:57:23;;;;;;;7.93;3.90;;;;;;;3.00;100.00;98321.69;4237195;28;22098;-72
2023/12/21 05:59:50;;;;;;;10.90;4.10;;;;;;;2.88;100.00;98314.03;4236155;28;20237;-70
2023/12/21 06:02:16;;;;;;;6.37;3.40;;;;;;;2.87;100.00;98318.53;4234614;28;20420;-71
2023/12/21 06:04:43;;;;;;;6.37;3.50;;;;;;;2.86;100.00;98314.19;4240925;28;20231;-72
2023/12/21 06:07:10;;;;;;;6.87;3.50;;;;;;;2.93;100.00;98322.44;4241436;28;25483;-70
2023/12/21 06:09:36;;;;;;;9.43;4.10;;;;;;;2.90;100.00;98312.88;4229419;28;20239;-71
2023/12/21 06:12:04;;;;;;;6.93;3.37;;;;;;;2.84;100.00;98310.81;4247382;28;21664;-71
2023/12/21 06:14:31;;;;;;;6.33;3.53;;;;;;;2.92;100.00;98313.59;4242123;28;25627;-69
2023/12/21 06:16:57;;;;;;;5.57;3.70;;;;;;;2.84;100.00;98300.13;4225778;28;20673;-71
2023/12/21 06:19:24;;;;;;;8.73;3.60;;;;;;;2.89;100.00;98303.19;4235644;28;20509;-74
2023/12/21 06:21:51;;;;;;;6.60;3.37;;;;;;;2.75;100.00;98287.66;4235436;28;20585;-70
2023/12/21 06:24:18;;;;;;;6.17;3.50;;;;;;;2.80;100.00;98285.38;4231974;28;20238;-72
2023/12/21 06:26:44;;;;;;;9.00;3.30;;;;;;;2.80;100.00;98280.88;4244751;28;21123;-74
2023/12/21 06:29:11;;;;;;;8.47;3.33;;;;;;;2.82;100.00;98281.59;4231167;28;20254;-69
2023/12/21 06:31:38;;;;;;;9.33;3.60;;;;;;;2.77;100.00;98281.19;4223108;28;21150;-68
2023/12/21 06:34:04;;;;;;;6.87;3.63;;;;;;;2.71;100.00;98278.28;4238600;28;22881;-69
2023/12/21 06:36:32;;;;;;;8.23;4.17;;;;;;;2.71;100.00;98273.78;4236960;28;20239;-69
2023/12/21 06:38:59;;;;;;;5.97;3.37;;;;;;;2.77;100.00;98275.84;4240595;28;20238;-72
2023/12/21 06:41:25;;;;;;;5.50;3.00;;;;;;;2.71;100.00;98263.09;4264061;28;20235;-73
2023/12/21 06:43:52;;;;;;;6.50;3.37;;;;;;;2.62;100.00;98258.63;4272194;28;23286;-71
2023/12/21 06:46:20;;;;;;;5.97;3.27;;;;;;;2.53;100.00;98250.53;4290353;28;20288;-70
2023/12/21 06:48:47;;;;;;;7.33;3.10;;;;;;;2.62;100.00;98246.16;4269894;28;20992;-70
2023/12/21 06:51:15;;;;;;;5.53;2.93;;;;;;;2.46;100.00;98241.44;4271192;28;20442;-71
2023/12/21 06:53:41;;;;;;;5.93;3.53;;;;;;;2.52;100.00;98248.03;4238951;28;21255;-71
2023/12/21 06:56:09;;;;;;;6.53;3.40;;;;;;;2.65;100.00;98245.00;4248988;28;22566;-71
2023/12/21 06:58:56;;;;;;;4.23;2.90;;;;;;;2.66;100.00;98234.16;4220457;28;21766;-72
2023/12/21 07:01:26;;;;;;;4.93;3.00;;;;;;;2.72;100.00;98234.56;4321991;28;21598;-70
2023/12/21 07:03:55;;;;;;;7.63;2.97;;;;;;;2.63;100.00;98233.63;4273577;28;20293;-72
2023/12/21 07:06:21;;;;;;;5.23;2.73;;;;;;;2.57;100.00;98223.53;4241891;28;20266;-74
2023/12/21 07:08:48;;;;;;;7.70;2.80;;;;;;;2.57;100.00;98229.72;4264718;28;20589;-71
2023/12/21 07:11:17;;;;;;;6.10;2.87;;;;;;;2.63;100.00;98215.78;4262064;28;20557;-69
2023/12/21 07:13:45;;;;;;;6.33;3.03;;;;;;;2.68;100.00;98210.81;4255906;28;20320;-70
2023/12/21 07:16:12;;;;;;;5.63;3.03;;;;;;;2.58;100.00;98203.84;4269576;28;21129;-71
2023/12/21 07:18:39;;;;;;;6.53;3.50;;;;;;;2.61;100.00;98204.38;4252855;28;20238;-72
2023/12/21 07:21:06;;;;;;;7.10;3.40;;;;;;;2.63;100.00;98194.41;4264160;28;20349;-71
2023/12/21 07:23:33;;;;;;;6.67;3.40;;;;;;;2.74;100.00;98189.81;4259432;28;22941;-70
2023/12/21 07:26:00;;;;;;;6.03;3.03;;;;;;;2.70;100.00;98186.59;4287083;28;21780;-72
2023/12/21 07:28:28;;;;;;;9.27;3.63;;;;;;;2.65;100.00;98188.91;4274871;28;25751;-70
2023/12/21 07:30:55;;;;;;;9.13;3.50;;;;;;;2.61;100.00;98169.66;4274975;28;21620;-70
2023/12/21 07:33:22;;;;;;;4.47;3.17;;;;;;;2.76;100.00;98169.94;4275398;28;20253;-69
2023/12/21 07:35:50;;;;;;;6.17;3.70;;;;;;;2.80;100.00;98168.66;4282121;28;21470;-71
2023/12/21 07:38:16;;;;;;;7.83;3.80;;;;;;;2.77;100.00;98158.28;4275677;28;20229;-70
2023/12/21 07:40:44;;;;;;;6.07;3.60;;;;;;;2.77;100.00;98146.75;4263963;28;20520;-70
2023/12/21 07:43:11;;;;;;;9.20;3.20;;;;;;;2.85;100.00;98153.00;4263816;28;20527;-69
2023/12/21 07:45:38;;;;;;;7.07;3.90;;;;;;;2.92;100.00;98145.22;4229544;28;21620;-72
2023/12/21 07:48:05;;;;;;;6.53;3.70;;;;;;;2.90;100.00;98147.19;4253978;28;20244;-70
2023/12/21 07:50:32;;;;;;;7.73;3.90;;;;;;;2.83;100.00;98135.44;4249743;28;21937;-70
2023/12/21 07:52:59;;;;;;;7.50;4.20;;;;;;;2.94;100.00;98137.91;4260753;28;20231;-72
2023/12/21 07:55:25;;;;;;;7.47;3.47;;;;;;;3.00;100.00;98133.72;4254348;28;21310;-73
2023/12/21 07:57:52;;;;;;;6.70;3.47;;;;;;;3.02;100.00;98131.75;4251437;28;22174;-71
2023/12/21 08:00:19;;;;;;;6.00;3.90;;;;;;;3.00;100.00;98121.22;4249111;28;20229;-71
2023/12/21 08:02:46;;;;;;;7.00;4.07;;;;;;;3.09;100.00;98113.28;4220721;28;20230;-68
2023/12/21 08:05:14;;;;;;;5.37;3.70;;;;;;;3.10;100.00;98105.09;4236411;28;21059;-69
2023/12/21 08:07:41;;;;;;;5.90;3.73;;;;;;;3.08;100.00;98096.38;4241531;28;20286;-70
2023/12/21 08:10:08;;;;;;;5.80;3.83;;;;;;;3.14;100.00;98094.91;4233573;28;22400;-71
2023/12/21 08:12:36;;;;;;;10.67;4.20;;;;;;;3.19;100.00;98094.44;4236879;28;20948;-69
2023/12/21 08:15:03;;;;;;;6.77;4.20;;;;;;;3.22;100.00;98083.41;4238782;28;20284;-70
2023/12/21 08:17:31;;;;;;;8.27;4.27;;;;;;;3.25;100.00;98088.47;4227899;28;20446;-69
2023/12/21 08:19:58;;;;;;;11.27;4.87;;;;;;;3.24;100.00;98084.09;4245765;28;20293;-71
2023/12/21 08:22:24;;;;;;;9.17;4.77;;;;;;;3.30;100.00;98078.13;4235657;28;25956;-71
2023/12/21 08:24:51;;;;;;;6.30;4.37;;;;;;;3.23;100.00;98064.56;4232075;28;27205;-70
2023/12/21 08:27:21;;;;;;;7.37;4.20;;;;;;;3.22;100.00;98057.53;4242601;28;21210;-69
2023/12/21 08:29:47;;;;;;;8.67;4.27;;;;;;;3.25;100.00;98056.38;4229224;28;20239;-71
2023/12/21 08:32:14;;;;;;;6.10;3.73;;;;;;;3.36;100.00;98042.72;4239044;28;20488;-72
2023/12/21 08:34:42;;;;;;;5.27;3.40;;;;;;;3.30;100.00;98038.00;4240352;28;20246;-74
2023/12/21 08:37:10;;;;;;;7.67;3.10;;;;;;;3.37;100.00;98027.50;4254099;28;20320;-71
2023/12/21 08:39:39;;;;;;;5.97;3.00;;;;;;;3.24;100.00;98023.47;4244371;28;20222;-72
2023/12/21 08:42:09;;;;;;;3.90;3.00;;;;;;;3.20;100.00;98015.91;4231472;28;20270;-71
2023/12/21 08:44:38;;;;;;;8.00;3.53;;;;;;;3.28;100.00;98011.44;4238574;28;20232;-72
2023/12/21 08:47:05;;;;;;;7.60;3.67;;;;;;;3.36;100.00;98007.94;4237176;28;20235;-73
2023/12/21 08:49:32;;;;;;;5.30;3.10;;;;;;;3.31;100.00;97997.75;4230482;28;20950;-72
2023/12/21 08:51:59;;;;;;;6.17;3.50;;;;;;;3.30;100.00;97998.75;4219166;28;20417;-70
2023/12/21 08:54:27;;;;;;;4.40;2.70;;;;;;;3.33;100.00;97978.88;4243614;28;20240;-72
2023/12/21 08:56:54;;;;;;;6.40;2.63;;;;;;;3.24;100.00;97971.81;4242612;28;20848;-72
2023/12/21 08:59:25;;;;;;;7.60;3.47;;;;;;;3.33;100.00;97971.66;4237054;28;21831;-73
2023/12/21 09:01:56;;;;;;;4.40;2.67;;;;;;;3.28;100.00;97967.81;4238726;28;20246;-70
2023/12/21 09:04:23;;;;;;;7.90;3.07;;;;;;;3.32;100.00;97955.78;4241619;28;25537;-70
2023/12/21 09:06:50;;;;;;;3.93;2.50;;;;;;;3.29;100.00;97946.25;4250988;28;22094;-72
2023/12/21 09:09:17;;;;;;;5.87;2.80;;;;;;;3.28;100.00;97954.47;4236053;28;21308;-72
2023/12/21 09:11:43;;;;;;;5.63;2.67;;;;;;;3.31;100.00;97930.91;4241306;28;20325;-69
2023/12/21 09:14:10;;;;;;;5.00;2.43;;;;;;;3.32;100.00;97924.53;4239583;28;20234;-70
2023/12/21 09:16:37;;;;;;;3.90;2.30;;;;;;;3.32;100.00;97919.19;4244310;28;20236;-72
2023/12/21 09:19:03;;;;;;;3.13;2.40;;;;;;;3.27;100.00;97921.53;4245917;28;20231;-71
2023/12/21 09:21:30;;;;;;;4.00;2.53;;;;;;;3.30;100.00;97902.50;4225583;28;20314;-71
2023/12/21 09:23:59;;;;;;;4.40;2.27;;;;;;;3.31;100.00;97906.84;4274010;28;20417;-69
2023/12/21 09:26:26;;;;;;;5.30;2.73;;;;;;;3.36;100.00;97894.81;4259465;28;20417;-73
2023/12/21 09:28:52;;;;;;;5.25;2.72;;;;;;;3.49;100.00;97887.97;4232055;28;20417;-61
2023/12/21 09:31:19;;;;;;;5.30;2.90;;;;;;;3.67;100.00;97878.13;4242403;28;20261;-72
2023/12/21 09:33:46;;;;;;;3.43;2.00;;;;;;;3.54;100.00;97884.81;4229605;28;21234;-72
2023/12/21 09:36:15;;;;;;;6.77;2.50;;;;;;;3.53;100.00;97874.25;4238808;28;20563;-72
2023/12/21 09:38:42;;;;;;;5.83;2.30;;;;;;;3.57;100.00;97867.59;4236521;28;21790;-73
2023/12/21 09:41:09;;;;;;;5.77;2.50;;;;;;;3.65;100.00;97849.69;4242815;28;20257;-74
2023/12/21 09:43:37;;;;;;;5.90;2.60;;;;;;;3.60;100.00;97864.56;4242358;28;20238;-71
2023/12/21 09:46:05;;;;;;;4.40;2.90;;;;;;;3.61;100.00;97848.38;4266620;28;20226;-73
2023/12/21 09:48:32;;;;;;;5.30;3.00;;;;;;;3.68;100.00;97837.81;4251318;28;21697;-74
2023/12/21 09:51:04;;;;;;;5.00;2.50;;;;;;;3.73;100.00;97831.97;4251794;28;20460;-73
2023/12/21 09:53:33;;;;;;;3.43;2.20;;;;;;;3.81;100.00;97835.47;4231593;28;25472;-71
2023/12/21 09:56:01;;;;;;;4.37;2.33;;;;;;;3.79;100.00;97824.13;4238270;28;20255;-71
2023/12/21 09:58:31;;;;;;;5.63;2.10;;;;;;;3.86;100.00;97810.88;4247010;28;21081;-73
2023/12/21 10:00:58;;;;;;;3.57;1.90;;;;;;;3.93;100.00;97825.25;4248404;28;20573;-70
2023/12/21 10:03:24;;;;;;;4.17;2.10;;;;;;;3.93;100.00;97819.91;4299144;28;20223;-69
2023/12/21 10:05:52;;;;;;;3.10;2.10;;;;;;;3.96;100.00;97806.19;4247243;28;20320;-71
2023/12/21 10:08:20;;;;;;;4.40;2.30;;;;;;;3.88;100.00;97800.03;4243914;28;20322;-71
2023/12/21 10:10:47;;;;;;;4.53;2.40;;;;;;;3.97;100.00;97790.94;4251325;28;21571;-68
2023/12/21 10:13:14;;;;;;;6.53;2.97;;;;;;;4.01;100.00;97775.38;4267580;28;20317;-70
2023/12/21 10:15:42;;;;;;;9.67;2.83;;;;;;;4.06;100.00;97783.75;4247665;28;20235;-68
2023/12/21 10:18:09;;;;;;;4.60;2.50;;;;;;;4.03;100.00;97779.59;4261203;28;20237;-69
2023/12/21 10:20:36;;;;;;;5.45;3.03;;;;;;;4.03;100.00;97776.06;4241919;28;21833;-71
2023/12/21 10:23:03;;;;;;;5.57;2.67;;;;;;;4.06;100.00;97759.66;4257696;28;22855;-70
2023/12/21 10:25:30;;;;;;;4.30;2.57;;;;;;;4.09;100.00;97773.53;4236192;28;20238;-70
2023/12/21 10:27:57;;;;;;;3.87;2.30;;;;;;;4.00;100.00;97750.47;4249081;28;20228;-70
2023/12/21 10:30:24;;;;;;;4.73;2.70;;;;;;;4.02;100.00;97740.44;4273187;28;20244;-70
2023/12/21 10:32:56;;;;;;;6.10;2.57;;;;;;;4.08;100.00;97739.72;4256215;28;24106;-71
2023/12/21 10:35:25;;;;;;;7.93;3.00;;;;;;;4.10;100.00;97734.19;4231303;28;20317;-68
2023/12/21 10:37:52;;;;;;;7.77;2.83;;;;;;;4.08;100.00;97726.34;4250203;28;23429;-70
2023/12/21 10:40:22;;;;;;;7.50;3.23;;;;;;;4.16;100.00;97716.63;4240537;28;21864;-70
2023/12/21 10:42:50;;;;;;;9.30;3.17;;;;;;;4.15;100.00;97702.41;4246293;28;20241;-69
2023/12/21 10:45:18;;;;;;;4.97;2.90;;;;;;;4.10;100.00;97715.47;4239269;28;20799;-70
2023/12/21 10:48:06;;;;;;;4.70;3.10;;;;;;;4.14;100.00;97703.41;4236244;28;20282;-71
2023/12/21 10:50:34;;;;;;;8.47;3.00;;;;;;;4.10;100.00;97691.38;4246984;28;20282;-70
2023/12/21 10:53:02;;;;;;;4.67;3.00;;;;;;;4.13;100.00;97683.81;4243346;28;20533;-68
2023/12/21 10:55:30;;;;;;;5.77;2.80;;;;;;;4.13;100.00;97683.81;4243466;28;21395;-70
2023/12/21 10:58:00;;;;;;;4.27;2.67;;;;;;;4.23;100.00;97674.75;4244653;28;20306;-69
2023/12/21 11:00:27;;;;;;;4.30;2.90;;;;;;;4.27;100.00;97671.53;4240721;28;20626;-71
2023/12/21 11:02:57;;;;;;;3.90;2.60;;;;;;;4.30;100.00;97653.47;4247348;28;20516;-65
2023/12/21 11:05:31;;;;;;;5.47;2.90;;;;;;;4.45;100.00;97646.34;4241410;28;20250;-72
2023/12/21 11:08:00;;;;;;;5.60;3.07;;;;;;;4.47;100.00;97644.31;4243321;28;20261;-72
2023/12/21 11:10:27;;;;;;;4.93;3.00;;;;;;;4.38;100.00;97637.34;4247114;28;20304;-71
2023/12/21 11:12:55;;;;;;;6.93;3.30;;;;;;;4.38;100.00;97627.47;4223217;28;20276;-71
2023/12/21 11:15:22;;;;;;;4.40;2.73;;;;;;;4.36;100.00;97621.44;4221507;28;20227;-73
2023/12/21 11:17:53;;;;;;;8.30;3.60;;;;;;;4.44;100.00;97613.34;4232252;28;20489;-72
2023/12/21 11:20:29;;;;;;;9.23;3.30;;;;;;;4.48;100.00;97608.47;4243505;28;20284;-72
2023/12/21 11:23:11;;;;;;;6.70;3.40;;;;;;;4.58;100.00;97603.72;4245109;28;20499;-70
2023/12/21 11:25:38;;;;;;;8.13;3.27;;;;;;;4.62;100.00;97601.50;4237536;28;20241;-71
2023/12/21 11:28:06;;;;;;;7.17;3.17;;;;;;;4.59;100.00;97585.78;4234553;28;20234;-71
2023/12/21 11:30:33;;;;;;;4.90;3.23;;;;;;;4.65;100.00;97585.06;4237453;28;20244;-72
2023/12/21 11:33:07;;;;;;;5.07;3.13;;;;;;;4.67;100.00;97584.91;4239458;28;22103;-73
2023/12/21 11:35:34;;;;;;;3.90;2.30;;;;;;;4.70;100.00;97571.13;4254098;28;21738;-71